Time;durP1;ratioP1;P1;durP2;ratioP2;P2;SDS_P1;SDS_P2;PMS_P1;PMS_P2;Temp;Humidity;BMP_temperature;BMP_pressure;BME280_temperature;BME280_humidity;BME280_pressure;Samples;Min_cycle;Max_cycle;Signal;HPM_P1;HPM_P2
2023/12/16 00:01:16;;;;;;;;;;;7.30;99.90;;;;;;4964719;28;20028;-70
2023/12/16 00:03:42;;;;;;;;;;;7.30;99.90;;;;;;4993804;28;20369;-70
2023/12/16 00:06:08;;;;;;;;;;;7.30;99.90;;;;;;4958719;28;20007;-71
2023/12/16 00:08:34;;;;;;;;;;;7.30;99.90;;;;;;4996242;28;20084;-71
2023/12/16 00:11:00;;;;;;;;;;;7.30;99.90;;;;;;4955589;28;20616;-70
2023/12/16 00:13:25;;;;;;;;;;;7.30;99.90;;;;;;4994779;28;19932;-70
2023/12/16 00:15:51;;;;;;;;;;;7.30;99.90;;;;;;4961636;28;20777;-71
2023/12/16 00:18:17;;;;;;;;;;;7.30;99.90;;;;;;5005074;28;19925;-70
2023/12/16 00:20:43;;;;;;;;;;;7.30;99.90;;;;;;4955737;28;20018;-70
2023/12/16 00:23:09;;;;;;;;;;;7.30;99.90;;;;;;4993987;28;20152;-70
2023/12/16 00:25:35;;;;;;;;;;;7.30;99.90;;;;;;4956481;28;19925;-69
2023/12/16 00:28:01;;;;;;;;;;;7.30;99.90;;;;;;4999719;28;19925;-70
2023/12/16 00:30:27;;;;;;;;;;;7.30;99.90;;;;;;4955147;28;19972;-70
2023/12/16 00:32:53;;;;;;;;;;;7.30;99.90;;;;;;5003076;28;19925;-69
2023/12/16 00:35:18;;;;;;;;;;;7.30;99.90;;;;;;4958282;28;19925;-69
2023/12/16 00:37:44;;;;;;;;;;;7.30;99.90;;;;;;5002006;28;20039;-70
2023/12/16 00:40:11;;;;;;;;;;;7.30;99.90;;;;;;4979659;28;20437;-70
2023/12/16 00:42:36;;;;;;;;;;;7.30;99.90;;;;;;4991941;28;20000;-70
2023/12/16 00:45:04;;;;;;;;;;;7.20;99.90;;;;;;5021514;28;20319;-70
2023/12/16 00:47:30;;;;;;;;;;;7.20;99.90;;;;;;4958881;28;20426;-70
2023/12/16 00:49:55;;;;;;;;;;;7.20;99.90;;;;;;4961612;28;19937;-71
2023/12/16 00:52:22;;;;;;;;;;;7.20;99.90;;;;;;4954778;28;20474;-70
2023/12/16 00:54:47;;;;;;;;;;;7.10;99.90;;;;;;4961123;28;20587;-70
2023/12/16 00:57:13;;;;;;;;;;;7.10;99.90;;;;;;4968388;28;20640;-69
2023/12/16 00:59:39;;;;;;;;;;;7.10;99.90;;;;;;4982897;28;19929;-70
2023/12/16 01:02:05;;;;;;;;;;;7.10;99.90;;;;;;4980185;28;19924;-70
2023/12/16 01:04:31;;;;;;;;;;;7.00;99.90;;;;;;4984696;28;20009;-70
2023/12/16 01:06:57;;;;;;;;;;;7.00;99.90;;;;;;4977977;28;19998;-69
2023/12/16 01:09:24;;;;;;;;;;;7.00;99.90;;;;;;4981179;28;19932;-70
2023/12/16 01:11:50;;;;;;;;;;;6.90;99.90;;;;;;4961984;28;21043;-70
2023/12/16 01:14:16;;;;;;;;;;;6.80;99.90;;;;;;4983465;28;20486;-71
2023/12/16 01:16:42;;;;;;;;;;;6.80;99.90;;;;;;4968180;28;19925;-70
2023/12/16 01:19:08;;;;;;;;;;;6.70;99.90;;;;;;4988435;28;19925;-70
2023/12/16 01:21:40;;;;;;;;;;;6.70;99.90;;;;;;4963345;28;20391;-70
2023/12/16 01:24:06;;;;;;;;;;;6.70;99.90;;;;;;4986987;28;19929;-71
2023/12/16 01:26:32;;;;;;;;;;;6.60;99.90;;;;;;4969796;28;20002;-71
2023/12/16 01:28:58;;;;;;;;;;;6.60;99.90;;;;;;4992289;28;21391;-71
2023/12/16 01:31:24;;;;;;;;;;;6.60;99.90;;;;;;4963304;28;19925;-70
2023/12/16 01:33:51;;;;;;;;;;;6.60;99.90;;;;;;4990546;28;19929;-70
2023/12/16 01:36:17;;;;;;;;;;;6.60;99.90;;;;;;4961877;28;21041;-69
2023/12/16 01:38:43;;;;;;;;;;;6.60;99.90;;;;;;4988636;28;19936;-70
2023/12/16 01:41:08;;;;;;;;;;;6.70;99.90;;;;;;4964792;28;19924;-69
2023/12/16 01:43:34;;;;;;;;;;;6.60;99.90;;;;;;4999074;28;19929;-71
2023/12/16 01:46:03;;;;;;;;;;;6.60;99.90;;;;;;4958269;28;19929;-71
2023/12/16 01:48:30;;;;;;;;;;;6.60;99.90;;;;;;4994372;28;19925;-69
2023/12/16 01:50:56;;;;;;;;;;;6.60;99.90;;;;;;4958413;28;19925;-70
2023/12/16 01:53:22;;;;;;;;;;;6.60;99.90;;;;;;4994644;28;19933;-70
2023/12/16 01:55:48;;;;;;;;;;;6.60;99.90;;;;;;4958950;28;19928;-70
2023/12/16 01:58:14;;;;;;;;;;;6.50;99.90;;;;;;4993755;28;20015;-70
2023/12/16 02:00:41;;;;;;;;;;;6.50;99.90;;;;;;4953426;28;19924;-70
2023/12/16 02:03:07;;;;;;;;;;;6.50;99.90;;;;;;4998700;28;19944;-70
2023/12/16 02:05:33;;;;;;;;;;;6.40;99.90;;;;;;4955760;28;19985;-70
2023/12/16 02:07:59;;;;;;;;;;;6.40;99.90;;;;;;4982729;28;19932;-71
2023/12/16 02:10:25;;;;;;;;;;;6.40;99.90;;;;;;4952877;28;20499;-71
2023/12/16 02:12:50;;;;;;;;;;;6.40;99.90;;;;;;5009896;28;20023;-71
2023/12/16 02:15:16;;;;;;;;;;;6.40;99.90;;;;;;4965810;28;19936;-70
2023/12/16 02:17:42;;;;;;;;;;;6.40;99.90;;;;;;4987508;28;19929;-70
2023/12/16 02:20:09;;;;;;;;;;;6.40;99.90;;;;;;4980662;28;20254;-70
2023/12/16 02:22:34;;;;;;;;;;;6.40;99.90;;;;;;4983302;28;19924;-70
2023/12/16 02:25:00;;;;;;;;;;;6.40;99.90;;;;;;4979472;28;20090;-70
2023/12/16 02:27:26;;;;;;;;;;;6.40;99.90;;;;;;4970783;28;20406;-70
2023/12/16 02:29:52;;;;;;;;;;;6.40;99.90;;;;;;4977797;28;19932;-70
2023/12/16 02:32:18;;;;;;;;;;;6.40;99.90;;;;;;4976079;28;19931;-70
2023/12/16 02:34:44;;;;;;;;;;;6.40;99.90;;;;;;4980247;28;20445;-70
2023/12/16 02:37:10;;;;;;;;;;;6.30;99.90;;;;;;4970443;28;20383;-71
2023/12/16 02:39:36;;;;;;;;;;;6.30;99.90;;;;;;4980392;28;19925;-71
2023/12/16 02:42:02;;;;;;;;;;;6.30;99.90;;;;;;4968418;28;19933;-69
2023/12/16 02:44:28;;;;;;;;;;;6.40;99.90;;;;;;4981192;28;20315;-70
2023/12/16 02:46:54;;;;;;;;;;;6.30;99.90;;;;;;4953347;28;20058;-70
2023/12/16 02:49:20;;;;;;;;;;;6.30;99.90;;;;;;4983555;28;20036;-69
2023/12/16 02:51:46;;;;;;;;;;;6.30;99.90;;;;;;4963194;28;20409;-70
2023/12/16 02:54:12;;;;;;;;;;;6.20;99.90;;;;;;4987331;28;19925;-70
2023/12/16 02:56:38;;;;;;;;;;;6.20;99.90;;;;;;4965449;28;19928;-70
2023/12/16 02:59:04;;;;;;;;;;;6.20;99.90;;;;;;4984631;28;19937;-70
2023/12/16 03:01:30;;;;;;;;;;;6.10;99.90;;;;;;4956365;28;19924;-70
2023/12/16 03:03:55;;;;;;;;;;;6.10;99.90;;;;;;4987764;28;19936;-70
2023/12/16 03:06:21;;;;;;;;;;;6.10;99.90;;;;;;4957677;28;19936;-70
2023/12/16 03:08:47;;;;;;;;;;;6.00;99.90;;;;;;4988843;28;19932;-70
2023/12/16 03:11:13;;;;;;;;;;;6.00;99.90;;;;;;4949482;28;19925;-69
2023/12/16 03:13:39;;;;;;;;;;;6.00;99.90;;;;;;4977077;28;20295;-68
2023/12/16 03:16:05;;;;;;;;;;;6.00;99.90;;;;;;4956687;28;19935;-69
2023/12/16 03:18:31;;;;;;;;;;;6.00;99.90;;;;;;4991024;28;19929;-70
2023/12/16 03:20:57;;;;;;;;;;;6.00;99.90;;;;;;4955723;28;21149;-70
2023/12/16 03:23:23;;;;;;;;;;;5.90;99.90;;;;;;4992953;28;19936;-70
2023/12/16 03:25:49;;;;;;;;;;;6.00;99.90;;;;;;4956754;28;21577;-70
2023/12/16 03:28:15;;;;;;;;;;;5.90;99.90;;;;;;4982108;28;19925;-70
2023/12/16 03:30:41;;;;;;;;;;;5.90;99.90;;;;;;4953289;28;21022;-71
2023/12/16 03:33:07;;;;;;;;;;;5.90;99.90;;;;;;4991601;28;19925;-71
2023/12/16 03:35:33;;;;;;;;;;;5.90;99.90;;;;;;4956647;28;19930;-70
2023/12/16 03:38:00;;;;;;;;;;;5.80;99.90;;;;;;4976567;28;20034;-70
2023/12/16 03:40:26;;;;;;;;;;;5.80;99.90;;;;;;4953661;28;19925;-70
2023/12/16 03:42:52;;;;;;;;;;;5.90;99.90;;;;;;4991650;28;19929;-71
2023/12/16 03:45:18;;;;;;;;;;;5.90;99.90;;;;;;4963055;28;19936;-70
2023/12/16 03:47:44;;;;;;;;;;;5.80;99.90;;;;;;4970698;28;21085;-70
2023/12/16 03:50:10;;;;;;;;;;;5.80;99.90;;;;;;4978710;28;19931;-71
2023/12/16 03:52:36;;;;;;;;;;;5.80;99.90;;;;;;4950127;28;19936;-70
2023/12/16 03:55:02;;;;;;;;;;;5.80;99.90;;;;;;4977668;28;20470;-70
2023/12/16 03:57:29;;;;;;;;;;;5.80;99.90;;;;;;4950223;28;19929;-70
2023/12/16 03:59:56;;;;;;;;;;;5.80;99.90;;;;;;4977422;28;19925;-70
2023/12/16 04:02:22;;;;;;;;;;;5.80;99.90;;;;;;4974792;28;19924;-71
2023/12/16 04:04:48;;;;;;;;;;;5.80;99.90;;;;;;4979240;28;20529;-71
2023/12/16 04:07:14;;;;;;;;;;;5.80;99.90;;;;;;4971877;28;19925;-71
2023/12/16 04:09:40;;;;;;;;;;;5.80;99.90;;;;;;4980020;28;22274;-70
2023/12/16 04:12:06;;;;;;;;;;;5.80;99.90;;;;;;4977239;28;21051;-70
2023/12/16 04:14:36;;;;;;;;;;;5.80;99.90;;;;;;4980895;28;19925;-70
2023/12/16 04:17:02;;;;;;;;;;;5.80;99.90;;;;;;4960585;28;20006;-71
2023/12/16 04:19:28;;;;;;;;;;;5.80;99.90;;;;;;4981187;28;20021;-70
2023/12/16 04:21:53;;;;;;;;;;;5.80;99.90;;;;;;4954334;28;20292;-70
2023/12/16 04:24:19;;;;;;;;;;;5.70;99.90;;;;;;4981028;28;20582;-71
2023/12/16 04:26:45;;;;;;;;;;;5.70;99.90;;;;;;4964944;28;19935;-71
2023/12/16 04:29:11;;;;;;;;;;;5.70;99.90;;;;;;4982128;28;20574;-71
2023/12/16 04:31:38;;;;;;;;;;;5.70;99.90;;;;;;4964428;28;19924;-68
2023/12/16 04:34:04;;;;;;;;;;;5.60;99.90;;;;;;4982464;28;20461;-68
2023/12/16 04:36:30;;;;;;;;;;;5.70;99.90;;;;;;4963265;28;19925;-68
2023/12/16 04:38:56;;;;;;;;;;;5.70;99.90;;;;;;4985230;28;20044;-68
2023/12/16 04:41:22;;;;;;;;;;;5.70;99.90;;;;;;4957211;28;19924;-69
2023/12/16 04:43:48;;;;;;;;;;;5.70;99.90;;;;;;4984016;28;19941;-69
2023/12/16 04:46:20;;;;;;;;;;;5.70;99.90;;;;;;4949904;28;19963;-68
2023/12/16 04:48:46;;;;;;;;;;;5.70;99.90;;;;;;4984320;28;19931;-67
2023/12/16 04:51:12;;;;;;;;;;;5.70;99.90;;;;;;4958197;28;19924;-69
2023/12/16 04:53:38;;;;;;;;;;;5.70;99.90;;;;;;4990601;28;19936;-68
2023/12/16 04:56:04;;;;;;;;;;;5.80;99.90;;;;;;4959704;28;19933;-68
2023/12/16 04:58:30;;;;;;;;;;;5.70;99.90;;;;;;4992633;28;20442;-68
2023/12/16 05:00:57;;;;;;;;;;;5.70;99.90;;;;;;4957992;28;19932;-69
2023/12/16 05:03:23;;;;;;;;;;;5.70;99.90;;;;;;4995391;28;20522;-68
2023/12/16 05:05:49;;;;;;;;;;;5.60;99.90;;;;;;4957971;28;20858;-68
2023/12/16 05:08:15;;;;;;;;;;;5.60;99.90;;;;;;4996833;28;19929;-69
2023/12/16 05:10:42;;;;;;;;;;;5.70;99.90;;;;;;4959994;28;19924;-68
2023/12/16 05:13:09;;;;;;;;;;;5.70;99.90;;;;;;4989900;28;19925;-69
2023/12/16 05:15:37;;;;;;;;;;;5.60;99.90;;;;;;4937277;28;22759;-69
2023/12/16 05:18:03;;;;;;;;;;;5.60;99.90;;;;;;4981260;28;19925;-68
2023/12/16 05:20:28;;;;;;;;;;;5.60;99.90;;;;;;4953602;28;19956;-68
2023/12/16 05:22:54;;;;;;;;;;;5.50;99.90;;;;;;4999807;28;20685;-69
2023/12/16 05:25:20;;;;;;;;;;;5.50;99.90;;;;;;4954207;28;19929;-69
2023/12/16 05:27:46;;;;;;;;;;;5.50;99.90;;;;;;4998991;28;20408;-69
2023/12/16 05:30:12;;;;;;;;;;;5.50;99.90;;;;;;4980039;28;19925;-69
2023/12/16 05:32:38;;;;;;;;;;;5.50;99.90;;;;;;4967434;28;19929;-69
2023/12/16 05:35:04;;;;;;;;;;;5.50;99.90;;;;;;4981030;28;19925;-68
2023/12/16 05:37:30;;;;;;;;;;;5.50;99.90;;;;;;4971108;28;19924;-68
2023/12/16 05:39:57;;;;;;;;;;;5.50;99.90;;;;;;4980873;28;20326;-68
2023/12/16 05:42:23;;;;;;;;;;;5.50;99.90;;;;;;4952975;28;19939;-69
2023/12/16 05:44:48;;;;;;;;;;;5.50;99.90;;;;;;4976872;28;19936;-70
2023/12/16 05:47:14;;;;;;;;;;;5.50;99.90;;;;;;4971526;28;20694;-68
2023/12/16 05:49:40;;;;;;;;;;;5.50;99.90;;;;;;4982845;28;19925;-68
2023/12/16 05:52:06;;;;;;;;;;;5.50;99.90;;;;;;4971761;28;19951;-69
2023/12/16 05:54:32;;;;;;;;;;;5.60;99.90;;;;;;4981453;28;19925;-68
2023/12/16 05:56:58;;;;;;;;;;;5.60;99.90;;;;;;4970569;28;19925;-68
2023/12/16 05:59:24;;;;;;;;;;;5.70;99.90;;;;;;4980322;28;19925;-68
2023/12/16 06:01:51;;;;;;;;;;;5.70;99.90;;;;;;4966626;28;19931;-67
2023/12/16 06:04:16;;;;;;;;;;;5.70;99.90;;;;;;4982328;28;19929;-67
2023/12/16 06:06:43;;;;;;;;;;;5.70;99.90;;;;;;4963001;28;19924;-68
2023/12/16 06:09:09;;;;;;;;;;;5.70;99.90;;;;;;4986681;28;19938;-68
2023/12/16 06:11:34;;;;;;;;;;;5.80;99.90;;;;;;4960553;28;20006;-68
2023/12/16 06:14:00;;;;;;;;;;;5.80;99.90;;;;;;4985382;28;19925;-68
2023/12/16 06:16:26;;;;;;;;;;;5.90;99.90;;;;;;4950835;28;20707;-68
2023/12/16 06:18:52;;;;;;;;;;;5.90;99.90;;;;;;4984792;28;19924;-68
2023/12/16 06:21:18;;;;;;;;;;;5.90;99.90;;;;;;4958285;28;20019;-68
2023/12/16 06:23:44;;;;;;;;;;;5.90;99.90;;;;;;4981359;28;19940;-70
2023/12/16 06:26:10;;;;;;;;;;;6.00;99.90;;;;;;4953132;28;19932;-70
2023/12/16 06:28:36;;;;;;;;;;;6.00;99.90;;;;;;4988596;28;19925;-70
2023/12/16 06:31:02;;;;;;;;;;;6.00;99.90;;;;;;4952159;28;19932;-69
2023/12/16 06:33:28;;;;;;;;;;;6.00;99.90;;;;;;4988531;28;19932;-70
2023/12/16 06:35:54;;;;;;;;;;;6.10;99.90;;;;;;4958469;28;20614;-69
2023/12/16 06:38:20;;;;;;;;;;;6.10;99.90;;;;;;5000288;28;19925;-69
2023/12/16 06:40:46;;;;;;;;;;;6.10;99.90;;;;;;4952957;28;19935;-69
2023/12/16 06:43:12;;;;;;;;;;;6.10;99.90;;;;;;4990358;28;19936;-69
2023/12/16 06:45:38;;;;;;;;;;;6.10;99.90;;;;;;4951726;28;21062;-70
2023/12/16 06:48:04;;;;;;;;;;;6.20;99.90;;;;;;4994505;28;19925;-70
2023/12/16 06:50:30;;;;;;;;;;;6.20;99.90;;;;;;4951676;28;19924;-70
2023/12/16 06:52:56;;;;;;;;;;;6.20;99.90;;;;;;4991687;28;20413;-70
2023/12/16 06:55:22;;;;;;;;;;;6.20;99.90;;;;;;4948690;28;19936;-68
2023/12/16 06:57:47;;;;;;;;;;;6.20;99.90;;;;;;4996996;28;20615;-68
2023/12/16 07:00:14;;;;;;;;;;;6.30;99.90;;;;;;4977146;28;19932;-68
2023/12/16 07:02:43;;;;;;;;;;;6.30;99.90;;;;;;4993211;28;19925;-68
2023/12/16 07:05:10;;;;;;;;;;;6.30;99.90;;;;;;4986235;28;20487;-68
2023/12/16 07:07:36;;;;;;;;;;;6.30;99.90;;;;;;4980982;28;20414;-70
2023/12/16 07:10:02;;;;;;;;;;;6.30;99.90;;;;;;4978645;28;19936;-68
2023/12/16 07:12:28;;;;;;;;;;;6.30;99.90;;;;;;4971509;28;19936;-68
2023/12/16 07:14:54;;;;;;;;;;;6.30;99.90;;;;;;4978249;28;19973;-67
2023/12/16 07:17:20;;;;;;;;;;;6.40;99.90;;;;;;4962245;28;20008;-67
2023/12/16 07:19:46;;;;;;;;;;;6.40;99.90;;;;;;4977590;28;19949;-67
2023/12/16 07:22:18;;;;;;;;;;;6.40;99.90;;;;;;4965528;28;20377;-68
2023/12/16 07:24:45;;;;;;;;;;;6.40;99.90;;;;;;4978760;28;19929;-68
2023/12/16 07:27:11;;;;;;;;;;;6.40;99.90;;;;;;4978381;28;19924;-68
2023/12/16 07:29:36;;;;;;;;;;;6.50;99.90;;;;;;4977947;28;19929;-67
2023/12/16 07:32:03;;;;;;;;;;;6.50;99.90;;;;;;4962604;28;20411;-68
2023/12/16 07:34:29;;;;;;;;;;;6.50;99.90;;;;;;4980735;28;20467;-67
2023/12/16 07:36:56;;;;;;;;;;;6.50;99.90;;;;;;4962317;28;19941;-68
2023/12/16 07:39:22;;;;;;;;;;;6.50;99.90;;;;;;4979434;28;19936;-68
2023/12/16 07:41:48;;;;;;;;;;;6.50;99.90;;;;;;4960367;28;19925;-68
2023/12/16 07:44:14;;;;;;;;;;;6.60;99.90;;;;;;4982943;28;21043;-68
2023/12/16 07:46:40;;;;;;;;;;;6.60;99.90;;;;;;4962046;28;20634;-69
2023/12/16 07:49:07;;;;;;;;;;;6.60;99.90;;;;;;4983747;28;19925;-68
2023/12/16 07:51:32;;;;;;;;;;;6.60;99.90;;;;;;4964423;28;20576;-68
2023/12/16 07:53:58;;;;;;;;;;;6.70;99.90;;;;;;4985703;28;19935;-68
2023/12/16 07:56:26;;;;;;;;;;;6.70;99.90;;;;;;4962088;28;19931;-68
2023/12/16 07:58:52;;;;;;;;;;;6.70;99.90;;;;;;4989157;28;19936;-69
2023/12/16 08:01:19;;;;;;;;;;;6.70;99.90;;;;;;4951807;28;20415;-69
2023/12/16 08:03:45;;;;;;;;;;;6.80;99.90;;;;;;4988455;28;19924;-68
2023/12/16 08:06:13;;;;;;;;;;;6.70;99.90;;;;;;4960851;28;20240;-70
2023/12/16 08:08:40;;;;;;;;;;;6.70;99.90;;;;;;4978212;28;19952;-69
2023/12/16 08:11:06;;;;;;;;;;;6.70;99.90;;;;;;4954736;28;19928;-68
2023/12/16 08:13:32;;;;;;;;;;;6.70;99.90;;;;;;4978251;28;19932;-67
2023/12/16 08:15:59;;;;;;;;;;;6.70;99.90;;;;;;4955452;28;19929;-68
2023/12/16 08:18:25;;;;;;;;;;;6.70;99.90;;;;;;4989566;28;20387;-69
2023/12/16 08:20:51;;;;;;;;;;;6.70;99.90;;;;;;4952885;28;19932;-68
2023/12/16 08:23:17;;;;;;;;;;;6.80;99.90;;;;;;4994335;28;19925;-68
2023/12/16 08:25:43;;;;;;;;;;;6.70;99.90;;;;;;4954434;28;19928;-68
2023/12/16 08:28:09;;;;;;;;;;;6.80;99.90;;;;;;4999439;28;20039;-68
2023/12/16 08:30:35;;;;;;;;;;;6.70;99.90;;;;;;4969854;28;20015;-67
2023/12/16 08:33:01;;;;;;;;;;;6.80;99.90;;;;;;4995659;28;20395;-67
2023/12/16 08:35:27;;;;;;;;;;;6.80;99.90;;;;;;4953385;28;19925;-68
2023/12/16 08:37:55;;;;;;;;;;;6.80;99.90;;;;;;4999937;28;19951;-68
2023/12/16 08:40:21;;;;;;;;;;;6.80;99.90;;;;;;4957936;28;19934;-69
2023/12/16 08:42:47;;;;;;;;;;;6.90;99.90;;;;;;5002480;28;20414;-68
2023/12/16 08:45:13;;;;;;;;;;;6.90;99.90;;;;;;4981633;28;20717;-68
2023/12/16 08:47:40;;;;;;;;;;;6.90;99.90;;;;;;4967331;28;19940;-68
2023/12/16 08:50:06;;;;;;;;;;;6.90;99.90;;;;;;4997568;28;20270;-68
2023/12/16 08:52:32;;;;;;;;;;;6.90;99.90;;;;;;4951249;28;19936;-68
2023/12/16 08:54:58;;;;;;;;;;;6.90;99.90;;;;;;4963501;28;19932;-68
2023/12/16 08:57:24;;;;;;;;;;;6.90;99.90;;;;;;4970846;28;19924;-69
2023/12/16 08:59:50;;;;;;;;;;;6.90;99.90;;;;;;4981140;28;19925;-69
2023/12/16 09:02:16;;;;;;;;;;;6.90;99.90;;;;;;4934691;28;20402;-68
2023/12/16 09:04:42;;;;;;;;;;;6.90;99.90;;;;;;4977114;28;19933;-68
2023/12/16 09:07:08;;;;;;;;;;;6.90;99.90;;;;;;4974076;28;19925;-67
2023/12/16 09:09:34;;;;;;;;;;;6.90;99.90;;;;;;4982626;28;20028;-68
2023/12/16 09:12:00;;;;;;;;;;;6.90;99.90;;;;;;4967151;28;19936;-69
2023/12/16 09:14:26;;;;;;;;;;;6.80;99.90;;;;;;4981030;28;19925;-68
2023/12/16 09:16:52;;;;;;;;;;;6.80;99.90;;;;;;4961120;28;20433;-68
2023/12/16 09:19:18;;;;;;;;;;;6.80;99.90;;;;;;4982694;28;19925;-68
2023/12/16 09:21:44;;;;;;;;;;;6.80;99.90;;;;;;4965421;28;20960;-68
2023/12/16 09:24:10;;;;;;;;;;;6.80;99.90;;;;;;4987844;28;19928;-68
2023/12/16 09:26:36;;;;;;;;;;;6.80;99.90;;;;;;4963690;28;19924;-68
2023/12/16 09:29:03;;;;;;;;;;;6.80;99.90;;;;;;4980849;28;19959;-69
2023/12/16 09:31:29;;;;;;;;;;;6.80;99.90;;;;;;4967454;28;20906;-69
2023/12/16 09:33:55;;;;;;;;;;;6.80;99.90;;;;;;4988225;28;19932;-68
2023/12/16 09:36:26;;;;;;;;;;;6.90;99.90;;;;;;4963095;28;20398;-68
2023/12/16 09:38:56;;;;;;;;;;;6.90;99.90;;;;;;4987050;28;19929;-68
2023/12/16 09:41:22;;;;;;;;;;;6.90;99.90;;;;;;4961476;28;21084;-69
2023/12/16 09:43:52;;;;;;;;;;;6.90;99.90;;;;;;4991391;28;19932;-68
2023/12/16 09:46:19;;;;;;;;;;;6.90;99.90;;;;;;4955176;28;19937;-69
2023/12/16 09:48:45;;;;;;;;;;;6.90;99.90;;;;;;4985546;28;20037;-68
2023/12/16 09:51:11;;;;;;;;;;;6.90;99.90;;;;;;4958434;28;21373;-68
2023/12/16 09:53:37;;;;;;;;;;;6.90;99.90;;;;;;4989411;28;19932;-68
2023/12/16 09:56:04;;;;;;;;;;;6.90;99.90;;;;;;4955197;28;19947;-68
2023/12/16 09:58:32;;;;;;;;;;;6.90;99.90;;;;;;4989305;28;19925;-70
2023/12/16 10:00:58;;;;;;;;;;;6.90;99.90;;;;;;4951985;28;19929;-69
2023/12/16 10:03:24;;;;;;;;;;;7.00;99.90;;;;;;4988461;28;19936;-69
2023/12/16 10:05:50;;;;;;;;;;;6.90;99.90;;;;;;4954174;28;20707;-69
2023/12/16 10:08:16;;;;;;;;;;;7.00;99.90;;;;;;4984912;28;19925;-68
2023/12/16 10:10:42;;;;;;;;;;;7.00;99.90;;;;;;4952359;28;20008;-69
2023/12/16 10:13:08;;;;;;;;;;;7.00;99.90;;;;;;4995664;28;20417;-69
2023/12/16 10:15:34;;;;;;;;;;;7.00;99.90;;;;;;4952245;28;19926;-68
2023/12/16 10:18:01;;;;;;;;;;;7.00;99.90;;;;;;4994277;28;19925;-69
2023/12/16 10:20:28;;;;;;;;;;;7.00;99.90;;;;;;4950829;28;19948;-68
2023/12/16 10:22:54;;;;;;;;;;;7.10;99.90;;;;;;4994419;28;19936;-69
2023/12/16 10:25:20;;;;;;;;;;;7.10;99.90;;;;;;4953672;28;19929;-69
2023/12/16 10:27:46;;;;;;;;;;;7.10;99.90;;;;;;5008821;28;20612;-68
2023/12/16 10:30:12;;;;;;;;;;;7.10;99.90;;;;;;4975200;28;21260;-69
2023/12/16 10:32:39;;;;;;;;;;;7.10;99.90;;;;;;4969213;28;21102;-69
2023/12/16 10:35:06;;;;;;;;;;;7.10;99.90;;;;;;4973269;28;19935;-69
2023/12/16 10:37:32;;;;;;;;;;;7.10;99.90;;;;;;4970778;28;19924;-70
2023/12/16 10:39:58;;;;;;;;;;;7.10;99.90;;;;;;4973948;28;20971;-70
2023/12/16 10:42:24;;;;;;;;;;;7.20;99.90;;;;;;4968818;28;19931;-69
2023/12/16 10:44:53;;;;;;;;;;;7.20;99.90;;;;;;4976870;28;19929;-69
2023/12/16 10:47:19;;;;;;;;;;;7.20;99.90;;;;;;4969628;28;19948;-70
2023/12/16 10:49:45;;;;;;;;;;;7.20;99.90;;;;;;4970069;28;19936;-68
2023/12/16 10:52:12;;;;;;;;;;;7.20;99.90;;;;;;4977177;28;19924;-68
2023/12/16 10:54:43;;;;;;;;;;;7.20;99.90;;;;;;4978080;28;19936;-68
2023/12/16 10:57:11;;;;;;;;;;;7.20;99.90;;;;;;4960038;28;19931;-67
2023/12/16 10:59:40;;;;;;;;;;;7.20;99.90;;;;;;4978325;28;20411;-68
2023/12/16 11:02:13;;;;;;;;;;;7.20;99.90;;;;;;4967850;28;21188;-68
2023/12/16 11:04:41;;;;;;;;;;;7.20;99.90;;;;;;4975353;28;19933;-68
2023/12/16 11:07:09;;;;;;;;;;;7.30;99.90;;;;;;4963057;28;19928;-68
2023/12/16 11:09:35;;;;;;;;;;;7.20;99.90;;;;;;4980579;28;19925;-68
2023/12/16 11:12:01;;;;;;;;;;;7.30;99.90;;;;;;4966448;28;19932;-69
2023/12/16 11:14:28;;;;;;;;;;;7.30;99.90;;;;;;4979126;28;19929;-68
2023/12/16 11:17:12;;;;;;;;;;;7.30;99.90;;;;;;4964237;28;19931;-68
2023/12/16 11:19:42;;;;;;;;;;;7.30;99.90;;;;;;4976742;28;19933;-69
2023/12/16 11:22:15;;;;;;;;;;;7.30;99.90;;;;;;4968174;28;21080;-68
2023/12/16 11:24:41;;;;;;;;;;;7.40;99.90;;;;;;4977750;28;19925;-68
2023/12/16 11:27:07;;;;;;;;;;;7.40;99.90;;;;;;4963750;28;19935;-68
2023/12/16 11:29:33;;;;;;;;;;;7.40;99.90;;;;;;4979062;28;19936;-68
2023/12/16 11:32:00;;;;;;;;;;;7.50;99.90;;;;;;4965919;28;19925;-69
2023/12/16 11:34:38;;;;;;;;;;;7.60;99.90;;;;;;4978167;28;19925;-69
2023/12/16 11:37:04;;;;;;;;;;;7.60;99.90;;;;;;4965802;28;21192;-67
2023/12/16 11:39:40;;;;;;;;;;;7.60;99.90;;;;;;4978804;28;19929;-67
2023/12/16 11:42:10;;;;;;;;;;;7.60;99.90;;;;;;4964246;28;19924;-68
2023/12/16 11:44:51;;;;;;;;;;;7.60;99.90;;;;;;4979465;28;20307;-68
2023/12/16 11:47:18;;;;;;;;;;;7.70;99.90;;;;;;4973179;28;19929;-67
2023/12/16 11:49:44;;;;;;;;;;;7.70;99.90;;;;;;4974560;28;19936;-68
2023/12/16 11:52:10;;;;;;;;;;;7.80;99.90;;;;;;4962858;28;20017;-68
2023/12/16 11:54:35;;;;;;;;;;;7.90;99.90;;;;;;4980777;28;19932;-68
2023/12/16 11:57:01;;;;;;;;;;;8.00;99.90;;;;;;4961172;28;20020;-68
2023/12/16 11:59:27;;;;;;;;;;;8.00;99.90;;;;;;4979994;28;19932;-69
2023/12/16 12:01:53;;;;;;;;;;;8.10;99.90;;;;;;4966401;28;19991;-67
2023/12/16 12:04:19;;;;;;;;;;;8.20;99.90;;;;;;4985563;28;19928;-67
2023/12/16 12:06:45;;;;;;;;;;;8.20;99.90;;;;;;4953810;28;19932;-68
2023/12/16 12:09:11;;;;;;;;;;;8.30;99.90;;;;;;4984799;28;20528;-69
2023/12/16 12:11:37;;;;;;;;;;;8.30;99.90;;;;;;4963520;28;19929;-69
2023/12/16 12:14:03;;;;;;;;;;;8.30;99.90;;;;;;4986629;28;19940;-69
2023/12/16 12:16:29;;;;;;;;;;;8.20;99.90;;;;;;4963982;28;19925;-68
2023/12/16 12:18:56;;;;;;;;;;;8.30;99.90;;;;;;4987753;28;20928;-69
2023/12/16 12:21:22;;;;;;;;;;;8.30;99.90;;;;;;4960927;28;19940;-69
2023/12/16 12:23:48;;;;;;;;;;;8.30;99.90;;;;;;4987193;28;20410;-68
2023/12/16 12:26:18;;;;;;;;;;;8.30;99.90;;;;;;4965080;28;19928;-68
2023/12/16 12:28:54;;;;;;;;;;;8.30;99.90;;;;;;4994406;28;20396;-69
2023/12/16 12:31:20;;;;;;;;;;;8.30;99.90;;;;;;4968157;28;19925;-69
2023/12/16 12:33:49;;;;;;;;;;;8.30;99.90;;;;;;4995678;28;20649;-69
2023/12/16 12:36:15;;;;;;;;;;;8.30;99.90;;;;;;4962263;28;19925;-69
2023/12/16 12:38:44;;;;;;;;;;;8.30;99.90;;;;;;4991299;28;19929;-72
2023/12/16 12:41:13;;;;;;;;;;;8.30;99.90;;;;;;4957225;28;19924;-69
2023/12/16 12:43:40;;;;;;;;;;;8.40;99.90;;;;;;4990652;28;19940;-70
2023/12/16 12:46:10;;;;;;;;;;;8.40;99.90;;;;;;4958252;28;19935;-69
2023/12/16 12:48:36;;;;;;;;;;;8.40;99.90;;;;;;4992811;28;19929;-69
2023/12/16 12:51:03;;;;;;;;;;;8.40;99.90;;;;;;4958740;28;19929;-68
2023/12/16 12:53:29;;;;;;;;;;;8.50;99.90;;;;;;4990424;28;19929;-70
2023/12/16 12:55:56;;;;;;;;;;;8.40;99.90;;;;;;4953618;28;20000;-69
2023/12/16 12:58:22;;;;;;;;;;;8.50;99.90;;;;;;4981610;28;19925;-69
2023/12/16 13:00:56;;;;;;;;;;;8.50;99.90;;;;;;4954739;28;19924;-70
2023/12/16 13:03:22;;;;;;;;;;;8.50;99.90;;;;;;4989980;28;19929;-70
2023/12/16 13:05:49;;;;;;;;;;;8.50;99.90;;;;;;4957291;28;19928;-69
2023/12/16 13:08:15;;;;;;;;;;;8.50;99.90;;;;;;4995323;28;19932;-69
2023/12/16 13:10:42;;;;;;;;;;;8.50;99.90;;;;;;4957675;28;19924;-68
2023/12/16 13:13:08;;;;;;;;;;;8.50;99.90;;;;;;4995798;28;19932;-69
2023/12/16 13:15:34;;;;;;;;;;;8.50;99.90;;;;;;4954079;28;19930;-69
2023/12/16 13:18:00;;;;;;;;;;;8.50;99.90;;;;;;4997276;28;20898;-69
2023/12/16 13:20:27;;;;;;;;;;;8.50;99.90;;;;;;4952986;28;19932;-69
2023/12/16 13:22:53;;;;;;;;;;;8.50;99.90;;;;;;5001213;28;20603;-70
2023/12/16 13:25:19;;;;;;;;;;;8.50;99.90;;;;;;4954791;28;19947;-69
2023/12/16 13:27:45;;;;;;;;;;;8.60;99.90;;;;;;4993966;28;19937;-71
2023/12/16 13:30:11;;;;;;;;;;;8.60;99.90;;;;;;4980898;28;19925;-69
2023/12/16 13:32:37;;;;;;;;;;;8.50;99.90;;;;;;4953363;28;19954;-70
2023/12/16 13:35:06;;;;;;;;;;;8.60;99.90;;;;;;4978562;28;19929;-69
2023/12/16 13:37:32;;;;;;;;;;;8.50;99.90;;;;;;4973249;28;20875;-69
2023/12/16 13:39:58;;;;;;;;;;;8.50;99.90;;;;;;4980726;28;19936;-69
2023/12/16 13:42:24;;;;;;;;;;;8.50;99.90;;;;;;4971340;28;19931;-69
2023/12/16 13:44:50;;;;;;;;;;;8.60;99.90;;;;;;4980797;28;19932;-69
2023/12/16 13:47:18;;;;;;;;;;;8.60;99.90;;;;;;4969367;28;19929;-69
2023/12/16 13:49:44;;;;;;;;;;;8.60;99.90;;;;;;4982456;28;20388;-69
2023/12/16 13:52:10;;;;;;;;;;;8.50;99.90;;;;;;4969617;28;19924;-68
2023/12/16 13:54:37;;;;;;;;;;;8.50;99.90;;;;;;4981222;28;20878;-68
2023/12/16 13:57:03;;;;;;;;;;;8.50;99.90;;;;;;4978880;28;19925;-68
2023/12/16 13:59:29;;;;;;;;;;;8.50;99.90;;;;;;4983699;28;20509;-69
2023/12/16 14:01:55;;;;;;;;;;;8.60;99.90;;;;;;4952331;28;19928;-69
2023/12/16 14:04:21;;;;;;;;;;;8.50;99.90;;;;;;4982814;28;19929;-68
2023/12/16 14:06:46;;;;;;;;;;;8.60;99.90;;;;;;4961079;28;21286;-68
2023/12/16 14:09:13;;;;;;;;;;;8.60;99.90;;;;;;4983526;28;19925;-69
2023/12/16 14:11:38;;;;;;;;;;;8.60;99.90;;;;;;4956696;28;19925;-68
2023/12/16 14:14:04;;;;;;;;;;;8.60;99.90;;;;;;4982146;28;19932;-69
2023/12/16 14:16:30;;;;;;;;;;;8.60;99.90;;;;;;4959668;28;20368;-68
2023/12/16 14:18:56;;;;;;;;;;;8.60;99.90;;;;;;4987982;28;19932;-68
2023/12/16 14:21:23;;;;;;;;;;;8.60;99.90;;;;;;4960256;28;20434;-68
2023/12/16 14:23:50;;;;;;;;;;;8.60;99.90;;;;;;4987294;28;19925;-68
2023/12/16 14:26:16;;;;;;;;;;;8.60;99.90;;;;;;4953537;28;19932;-68